createdAt,value
2023-04-02T00:01:01.513Z,71.83
2023-04-02T00:03:59.871Z,72.48
2023-04-02T00:06:30.288Z,70.82
2023-04-02T00:09:04.617Z,70.28
2023-04-02T00:11:38.818Z,71.29
2023-04-02T00:14:15.211Z,71.37
2023-04-02T00:16:42.195Z,72.09
2023-04-02T00:19:17.349Z,71.43
2023-04-02T00:21:46.634Z,70.55
2023-04-02T00:24:19.741Z,69.71
2023-04-02T00:26:51.425Z,69.23
2023-04-02T00:29:19.318Z,69.02
2023-04-02T00:31:51.862Z,69.05
2023-04-02T00:34:23.939Z,69.34
2023-04-02T00:36:51.830Z,69.32
2023-04-02T00:39:22.406Z,69.18
2023-04-02T00:41:54.701Z,69.23
2023-04-02T00:44:22.214Z,68.57
2023-04-02T00:46:50.106Z,69.25
2023-04-02T00:49:27.292Z,70.32
2023-04-02T00:52:01.658Z,70.06
2023-04-02T00:54:32.560Z,69.02
2023-04-02T00:56:59.455Z,69.39
2023-04-02T00:59:42.974Z,69.68
2023-04-02T01:02:17.379Z,68.79
2023-04-02T01:05:15.507Z,70.07
2023-04-02T01:07:42.339Z,69.29
2023-04-02T01:10:17.172Z,69.27
2023-04-02T01:13:31.381Z,70.60
2023-04-02T01:16:16.011Z,70.54
2023-04-02T01:18:50.400Z,71.65
2023-04-02T01:21:45.776Z,72.69
2023-04-02T01:24:14.031Z,74.54
2023-04-02T01:26:44.661Z,75.27
2023-04-02T01:29:18.763Z,75.50
2023-04-02T01:31:47.014Z,76.62
2023-04-02T01:34:17.825Z,76.33
2023-04-02T01:37:16.837Z,75.58
2023-04-02T01:40:01.245Z,76.18
2023-04-02T01:42:39.671Z,76.34
2023-04-02T01:45:12.363Z,75.50
2023-04-02T01:47:40.095Z,76.58
2023-04-02T01:50:31.952Z,76.47
2023-04-02T01:53:02.333Z,75.54
2023-04-02T01:55:40.189Z,75.01
2023-04-02T01:58:08.931Z,74.25
2023-04-02T02:00:41.551Z,74.86
2023-04-02T02:03:10.180Z,73.61
2023-04-02T02:05:37.559Z,73.00
2023-04-02T02:08:06.002Z,71.91
2023-04-02T02:10:39.208Z,71.89
2023-04-02T02:13:05.736Z,71.70
2023-04-02T02:15:34.170Z,71.06
2023-04-02T02:18:05.473Z,72.18
2023-04-02T02:20:34.397Z,72.53
2023-04-02T02:23:03.902Z,71.37
2023-04-02T02:25:36.785Z,70.88
2023-04-02T02:28:26.475Z,72.28
2023-04-02T02:31:07.120Z,72.86
2023-04-02T02:33:33.722Z,74.18
2023-04-02T02:36:10.299Z,73.98
2023-04-02T02:39:10.962Z,72.47
2023-04-02T02:41:42.885Z,71.13
2023-04-02T02:44:09.457Z,72.26
2023-04-02T02:46:40.420Z,71.37
2023-04-02T02:49:10.553Z,70.45
2023-04-02T02:51:46.320Z,69.87
2023-04-02T02:54:14.686Z,70.61
2023-04-02T02:56:48.178Z,70.71
2023-04-02T02:59:17.208Z,70.48
2023-04-02T03:01:45.786Z,70.13
2023-04-02T03:04:12.667Z,69.93
2023-04-02T03:06:40.897Z,70.26
2023-04-02T03:09:17.527Z,69.67
2023-04-02T03:12:28.490Z,69.31
2023-04-02T03:15:18.797Z,69.24
2023-04-02T03:18:08.579Z,69.24
2023-04-02T03:20:38.061Z,69.24
2023-04-02T03:23:19.194Z,69.75
2023-04-02T03:25:53.497Z,69.63
2023-04-02T03:28:26.013Z,69.28
2023-04-02T03:30:57.585Z,69.00
2023-04-02T03:33:29.845Z,68.86
2023-04-02T03:36:31.610Z,68.90
2023-04-02T03:39:14.814Z,68.54
2023-04-02T03:42:03.955Z,67.93
2023-04-02T03:44:44.174Z,68.52
2023-04-02T03:47:18.257Z,68.35
2023-04-02T03:49:54.051Z,67.95
2023-04-02T03:52:26.652Z,68.62
2023-04-02T03:54:58.736Z,68.49
2023-04-02T03:57:34.080Z,68.00
2023-04-02T04:00:14.361Z,68.15
2023-04-02T04:03:09.621Z,68.25
2023-04-02T04:05:45.988Z,68.02
2023-04-02T04:08:26.291Z,67.83
2023-04-02T04:10:56.166Z,67.88
2023-04-02T04:13:31.808Z,68.24
2023-04-02T04:16:04.859Z,67.66
2023-04-02T04:19:03.658Z,68.30
2023-04-02T04:21:39.899Z,68.02
2023-04-02T04:24:17.032Z,67.62
2023-04-02T04:26:58.100Z,67.40
2023-04-02T04:29:40.766Z,67.34
2023-04-02T04:32:27.867Z,67.46
2023-04-02T04:35:01.178Z,67.54
2023-04-02T04:37:33.714Z,67.89
2023-04-02T04:40:07.626Z,68.11
2023-04-02T04:42:38.224Z,67.50
2023-04-02T04:45:16.592Z,67.56
2023-04-02T04:47:51.880Z,67.59
2023-04-02T04:50:31.880Z,67.45
2023-04-02T04:53:06.091Z,67.24
2023-04-02T04:55:35.690Z,66.86
2023-04-02T04:58:28.261Z,67.00
2023-04-02T05:01:12.322Z,67.27
2023-04-02T05:03:51.258Z,67.54
2023-04-02T05:06:34.896Z,67.10
2023-04-02T05:09:13.486Z,67.25
2023-04-02T05:11:52.641Z,66.63
2023-04-02T05:14:41.836Z,67.25
2023-04-02T05:17:21.791Z,67.86
2023-04-02T05:20:16.307Z,67.39
2023-04-02T05:22:49.802Z,67.14
2023-04-02T05:25:28.167Z,67.56
2023-04-02T05:28:12.911Z,69.34
2023-04-02T05:30:49.693Z,70.35
2023-04-02T05:33:28.668Z,71.22
2023-04-02T05:36:03.158Z,71.10
2023-04-02T05:38:33.687Z,70.88
2023-04-02T05:41:22.500Z,71.09
2023-04-02T05:43:54.554Z,71.81
2023-04-02T05:46:27.418Z,71.87
2023-04-02T05:48:59.284Z,71.91
2023-04-02T05:51:39.346Z,72.03
2023-04-02T05:54:33.682Z,72.32
2023-04-02T05:57:09.759Z,71.62
2023-04-02T05:59:45.915Z,71.81
2023-04-02T06:02:36.442Z,73.22
2023-04-02T06:05:12.966Z,74.69
2023-04-02T06:07:48.499Z,74.20
2023-04-02T06:10:24.729Z,73.97
2023-04-02T06:12:54.377Z,74.09
2023-04-02T06:15:23.304Z,74.57
2023-04-02T06:18:05.055Z,74.39
2023-04-02T06:20:32.452Z,74.78
2023-04-02T06:23:13.820Z,75.20
2023-04-02T06:25:42.268Z,75.13
2023-04-02T06:28:15.626Z,74.84
2023-04-02T06:30:43.571Z,75.54
2023-04-02T06:33:12.709Z,74.38
2023-04-02T06:35:43.265Z,74.86
2023-04-02T06:38:25.354Z,73.51
2023-04-02T06:41:01.321Z,73.83
2023-04-02T06:43:36.429Z,75.05
2023-04-02T06:46:11.032Z,74.46
2023-04-02T06:48:39.420Z,73.03
2023-04-02T06:51:09.139Z,72.71
2023-04-02T06:53:39.103Z,73.38
2023-04-02T06:56:25.593Z,73.31
2023-04-02T06:58:52.165Z,74.62
2023-04-02T07:01:24.124Z,73.48
2023-04-02T07:03:51.226Z,72.96
2023-04-02T07:06:20.344Z,72.54
2023-04-02T07:08:47.516Z,74.05
2023-04-02T07:11:20.777Z,74.20
2023-04-02T07:13:49.296Z,74.20
2023-04-02T07:16:19.258Z,74.64
2023-04-02T07:18:47.125Z,76.01
2023-04-02T07:21:14.243Z,76.51
2023-04-02T07:23:40.909Z,76.79
2023-04-02T07:26:08.720Z,75.89
2023-04-02T07:28:35.753Z,74.97
2023-04-02T07:31:02.419Z,75.57
2023-04-02T07:33:30.733Z,75.74
2023-04-02T07:35:58.636Z,76.09
2023-04-02T07:38:25.857Z,77.21
2023-04-02T07:40:52.716Z,77.24
2023-04-02T07:43:19.343Z,76.32
2023-04-02T07:45:45.986Z,76.88
2023-04-02T07:48:14.313Z,76.45
2023-04-02T07:50:41.095Z,76.42
2023-04-02T07:53:08.872Z,76.56
2023-04-02T07:55:35.719Z,76.51
2023-04-02T07:58:03.121Z,76.07
2023-04-02T08:00:30.607Z,76.13
2023-04-02T08:02:57.376Z,77.09
2023-04-02T08:05:24.126Z,77.10
2023-04-02T08:07:57.033Z,77.47
2023-04-02T08:10:24.299Z,77.30
2023-04-02T08:12:51.307Z,77.62
2023-04-02T08:15:18.080Z,76.59
2023-04-02T08:17:46.639Z,76.25
2023-04-02T08:20:18.284Z,76.98
2023-04-02T08:22:49.231Z,76.83
2023-04-02T08:25:16.454Z,76.63
2023-04-02T08:27:43.145Z,76.17
2023-04-02T08:30:12.729Z,76.87
2023-04-02T08:32:41.279Z,76.61
2023-04-02T08:35:09.990Z,75.50
2023-04-02T08:37:37.229Z,75.39
2023-04-02T08:40:05.224Z,76.74
2023-04-02T08:42:42.525Z,76.96
2023-04-02T08:45:24.336Z,77.63
2023-04-02T08:47:56.551Z,77.07
2023-04-02T08:50:32.812Z,77.67
2023-04-02T08:53:02.734Z,76.94
2023-04-02T08:55:33.015Z,76.54
2023-04-02T08:58:21.332Z,76.17
2023-04-02T09:00:53.584Z,77.65
2023-04-02T09:03:24.115Z,77.31
2023-04-02T09:05:52.111Z,75.80
2023-04-02T09:08:22.542Z,76.55
2023-04-02T09:10:59.168Z,77.04
2023-04-02T09:13:29.208Z,76.63
2023-04-02T09:16:14.758Z,75.26
2023-04-02T09:18:43.170Z,76.08
2023-04-02T09:21:28.221Z,77.32
2023-04-02T09:23:55.252Z,75.88
2023-04-02T09:26:27.254Z,76.10
2023-04-02T09:29:19.646Z,76.13
2023-04-02T09:32:33.695Z,75.18
2023-04-02T09:35:25.468Z,75.56
2023-04-02T09:38:07.980Z,76.97
2023-04-02T09:40:44.230Z,75.36
2023-04-02T09:43:13.303Z,75.52
2023-04-02T09:45:42.247Z,75.78
2023-04-02T09:48:24.962Z,75.11
2023-04-02T09:51:23.670Z,75.31
2023-04-02T09:54:02.407Z,73.39
2023-04-02T09:56:33.784Z,73.72
2023-04-02T09:59:12.543Z,72.84
2023-04-02T10:02:03.737Z,74.01
2023-04-02T10:04:46.840Z,72.72
2023-04-02T10:07:53.290Z,72.92
2023-04-02T10:10:42.045Z,71.97
2023-04-02T10:13:25.643Z,73.12
2023-04-02T10:16:10.262Z,70.66
2023-04-02T10:18:48.400Z,72.27
2023-04-02T10:21:27.296Z,71.01
2023-04-02T10:23:55.725Z,72.06
2023-04-02T10:26:41.316Z,71.72
2023-04-02T10:29:17.000Z,72.21
2023-04-02T10:31:59.493Z,72.10
2023-04-02T10:35:11.588Z,72.42
2023-04-02T10:37:50.149Z,72.10
2023-04-02T10:40:24.864Z,72.31
2023-04-02T10:43:03.599Z,71.79
2023-04-02T10:45:30.123Z,71.70
2023-04-02T10:48:22.596Z,72.25
2023-04-02T10:51:01.212Z,72.42
2023-04-02T10:53:58.473Z,71.30
2023-04-02T10:56:27.703Z,72.06
2023-04-02T10:59:01.837Z,72.34
2023-04-02T11:01:29.830Z,73.32
2023-04-02T11:03:58.189Z,73.64
2023-04-02T11:06:29.477Z,73.29
2023-04-02T11:09:03.275Z,73.70
2023-04-02T11:11:36.698Z,74.35
2023-04-02T11:14:29.481Z,74.39
2023-04-02T11:16:59.163Z,74.35
2023-04-02T11:19:30.295Z,74.39
2023-04-02T11:22:03.186Z,74.51
2023-04-02T11:24:33.007Z,74.95
2023-04-02T11:27:12.079Z,74.58
2023-04-02T11:29:43.667Z,73.75
2023-04-02T11:32:16.141Z,73.31
2023-04-02T11:34:46.297Z,73.38
2023-04-02T11:37:45.276Z,73.30
2023-04-02T11:40:12.184Z,73.22
2023-04-02T11:42:42.599Z,73.16
2023-04-02T11:45:21.435Z,73.56
2023-04-02T11:48:31.586Z,74.01
2023-04-02T11:50:58.513Z,74.29
2023-04-02T11:53:34.497Z,74.76
2023-04-02T11:56:36.271Z,75.46
2023-04-02T11:59:21.355Z,75.57
2023-04-02T12:02:12.694Z,75.05
2023-04-02T12:05:04.470Z,75.26
2023-04-02T12:07:46.850Z,74.81
2023-04-02T12:10:22.890Z,74.20
2023-04-02T12:12:50.666Z,73.94
2023-04-02T12:15:26.409Z,73.87
2023-04-02T12:17:53.127Z,73.32
2023-04-02T12:20:25.562Z,72.77
2023-04-02T12:22:55.002Z,72.95
2023-04-02T12:25:26.901Z,73.21
2023-04-02T12:28:11.485Z,73.16
2023-04-02T12:30:39.204Z,73.15
2023-04-02T12:33:21.013Z,73.25
2023-04-02T12:35:50.743Z,73.48
2023-04-02T12:38:27.365Z,73.49
2023-04-02T12:40:56.840Z,73.45
2023-04-02T12:43:32.492Z,73.19
2023-04-02T12:46:02.840Z,74.39
2023-04-02T12:48:30.714Z,74.58
2023-04-02T12:50:58.182Z,74.34
2023-04-02T12:53:40.135Z,73.67
2023-04-02T12:56:08.469Z,73.78
2023-04-02T12:58:43.054Z,73.43
2023-04-02T13:01:18.710Z,73.21
2023-04-02T13:04:07.183Z,73.14
2023-04-02T13:06:36.987Z,72.96
2023-04-02T13:09:06.946Z,73.02
2023-04-02T13:11:39.112Z,73.41
2023-04-02T13:14:18.374Z,73.68
2023-04-02T13:16:45.033Z,72.43
2023-04-02T13:19:11.652Z,73.32
2023-04-02T13:21:38.627Z,73.25
2023-04-02T13:24:05.522Z,73.05
2023-04-02T13:26:32.134Z,72.54
2023-04-02T13:29:10.597Z,72.66
2023-04-02T13:31:37.307Z,71.62
2023-04-02T13:34:03.909Z,71.19
2023-04-02T13:36:30.719Z,70.92
2023-04-02T13:38:57.682Z,71.17
2023-04-02T13:41:29.406Z,71.74
2023-04-02T13:44:00.308Z,72.59
2023-04-02T13:46:30.031Z,72.55
2023-04-02T13:48:57.621Z,73.29
2023-04-02T13:51:32.064Z,73.67
2023-04-02T13:53:58.645Z,74.74
2023-04-02T13:56:25.562Z,74.93
2023-04-02T13:58:52.314Z,76.05
2023-04-02T14:01:21.453Z,76.04
2023-04-02T14:03:48.183Z,76.68
2023-04-02T14:06:30.278Z,76.96
2023-04-02T14:09:04.822Z,77.00
2023-04-02T14:11:56.253Z,78.00
2023-04-02T14:14:42.578Z,77.78
2023-04-02T14:17:43.578Z,76.75
2023-04-02T14:20:13.399Z,75.34
2023-04-02T14:22:46.342Z,74.87
2023-04-02T14:25:31.169Z,73.57
2023-04-02T14:28:26.922Z,73.30
2023-04-02T14:31:08.182Z,72.69
2023-04-02T14:33:53.132Z,73.13
2023-04-02T14:36:41.708Z,73.35
2023-04-02T14:39:31.497Z,73.33
2023-04-02T14:42:09.731Z,72.88
2023-04-02T14:44:43.757Z,72.23
2023-04-02T14:47:25.872Z,71.91
2023-04-02T14:49:59.003Z,71.74
2023-04-02T14:52:26.827Z,71.37
2023-04-02T14:55:03.307Z,71.39
2023-04-02T14:57:32.557Z,70.86
2023-04-02T15:00:32.957Z,70.64
2023-04-02T15:03:21.449Z,71.30
2023-04-02T15:05:53.094Z,70.76
2023-04-02T15:08:24.095Z,71.09
2023-04-02T15:11:02.877Z,71.36
2023-04-02T15:13:44.140Z,70.96
2023-04-02T15:16:16.602Z,71.56
2023-04-02T15:18:43.331Z,71.42
2023-04-02T15:21:16.643Z,71.64
2023-04-02T15:24:21.764Z,71.36
2023-04-02T15:26:54.430Z,71.72
2023-04-02T15:29:47.045Z,72.05
2023-04-02T15:32:25.888Z,71.98
2023-04-02T15:34:58.805Z,71.64
2023-04-02T15:37:43.966Z,71.17
2023-04-02T15:40:30.770Z,71.46
2023-04-02T15:43:18.386Z,72.08
2023-04-02T15:45:48.009Z,71.11
2023-04-02T15:48:17.593Z,71.11
2023-04-02T15:51:17.450Z,71.13
2023-04-02T15:54:02.128Z,73.11
2023-04-02T15:56:48.822Z,71.67
2023-04-02T15:59:18.111Z,70.82
2023-04-02T16:02:11.926Z,71.48
2023-04-02T16:04:41.364Z,71.41
2023-04-02T16:07:16.850Z,71.15
2023-04-02T16:09:43.978Z,71.04
2023-04-02T16:12:17.100Z,70.85
2023-04-02T16:14:46.649Z,71.28
2023-04-02T16:17:37.195Z,72.41
2023-04-02T16:20:18.429Z,73.71
2023-04-02T16:22:59.942Z,74.26
2023-04-02T16:25:33.015Z,75.66
2023-04-02T16:28:41.509Z,76.88
2023-04-02T16:31:25.064Z,78.99
2023-04-02T16:34:23.290Z,78.88
2023-04-02T16:37:11.584Z,78.54
2023-04-02T16:40:03.011Z,78.26
2023-04-02T16:42:43.488Z,77.73
2023-04-02T16:45:35.494Z,76.40
2023-04-02T16:48:31.930Z,75.40
2023-04-02T16:51:17.031Z,75.91
2023-04-02T16:54:05.875Z,75.97
2023-04-02T16:56:55.880Z,75.79
2023-04-02T16:59:31.558Z,75.00
2023-04-02T17:02:39.945Z,74.60
2023-04-02T17:05:09.434Z,74.07
2023-04-02T17:07:51.637Z,74.75
2023-04-02T17:10:46.441Z,74.86
2023-04-02T17:13:32.560Z,75.01
2023-04-02T17:16:30.732Z,75.55
2023-04-02T17:18:58.429Z,75.80
2023-04-02T17:21:28.134Z,76.27
2023-04-02T17:24:06.392Z,76.98
2023-04-02T17:26:34.963Z,77.42
2023-04-02T17:29:07.166Z,77.82
2023-04-02T17:31:35.328Z,77.64
2023-04-02T17:34:24.018Z,77.75
2023-04-02T17:37:12.112Z,79.08
2023-04-02T17:39:49.459Z,80.22
2023-04-02T17:42:19.075Z,79.59
2023-04-02T17:45:10.121Z,79.69
2023-04-02T17:47:51.913Z,79.34
2023-04-02T17:50:46.156Z,79.84
2023-04-02T17:53:40.504Z,79.60
2023-04-02T17:56:39.640Z,79.68
2023-04-02T17:59:08.876Z,79.03
2023-04-02T18:02:10.979Z,79.05
2023-04-02T18:04:42.121Z,78.74
2023-04-02T18:07:37.723Z,78.21
2023-04-02T18:10:25.456Z,78.66
2023-04-02T18:13:14.980Z,78.17
2023-04-02T18:16:02.649Z,78.32
2023-04-02T18:18:55.919Z,78.18
2023-04-02T18:21:37.657Z,78.60
2023-04-02T18:24:35.228Z,78.35
2023-04-02T18:27:26.752Z,79.11
2023-04-02T18:30:24.138Z,78.62
2023-04-02T18:33:49.598Z,78.50
2023-04-02T18:36:42.017Z,78.80
2023-04-02T18:39:51.445Z,78.93
2023-04-02T18:42:46.551Z,79.40
2023-04-02T18:45:29.961Z,78.55
2023-04-02T18:48:15.383Z,78.82
2023-04-02T18:50:46.006Z,78.80
2023-04-02T18:53:15.415Z,78.76
2023-04-02T18:56:08.027Z,78.80
2023-04-02T18:58:53.555Z,78.09
2023-04-02T19:01:28.176Z,78.15
2023-04-02T19:04:26.926Z,78.72
2023-04-02T19:07:14.294Z,78.64
2023-04-02T19:09:44.653Z,78.37
2023-04-02T19:12:20.567Z,78.30
2023-04-02T19:14:50.273Z,77.64
2023-04-02T19:17:36.875Z,76.99
2023-04-02T19:20:22.093Z,77.34
2023-04-02T19:23:07.409Z,76.94
2023-04-02T19:25:58.885Z,77.63
2023-04-02T19:28:54.917Z,77.37
2023-04-02T19:31:40.086Z,77.54
2023-04-02T19:34:31.198Z,77.23
2023-04-02T19:37:11.436Z,76.92
2023-04-02T19:40:04.879Z,76.59
2023-04-02T19:42:40.691Z,77.62
2023-04-02T19:45:18.091Z,77.67
2023-04-02T19:47:44.741Z,78.34
2023-04-02T19:50:11.675Z,78.23
2023-04-02T19:52:38.243Z,78.09
2023-04-02T19:55:05.084Z,78.23
2023-04-02T19:57:31.816Z,77.85
2023-04-02T19:59:58.550Z,77.63
2023-04-02T20:02:25.433Z,78.17
2023-04-02T20:04:52.074Z,78.29
2023-04-02T20:07:18.746Z,78.00
2023-04-02T20:09:45.361Z,77.74
2023-04-02T20:12:12.398Z,78.00
2023-04-02T20:14:39.027Z,77.59
2023-04-02T20:17:05.721Z,77.12
2023-04-02T20:19:32.616Z,77.04
2023-04-02T20:21:59.224Z,77.96
2023-04-02T20:24:25.960Z,77.29
2023-04-02T20:26:52.580Z,77.61
2023-04-02T20:29:19.206Z,77.09
2023-04-02T20:31:45.881Z,77.31
2023-04-02T20:34:12.699Z,76.93
2023-04-02T20:36:39.404Z,76.81
2023-04-02T20:39:08.306Z,77.26
2023-04-02T20:41:34.940Z,77.19
2023-04-02T20:44:02.139Z,76.64
2023-04-02T20:46:28.794Z,76.40
2023-04-02T20:48:55.440Z,77.36
2023-04-02T20:51:22.271Z,77.91
2023-04-02T20:53:49.184Z,78.19
2023-04-02T20:56:17.196Z,76.64
2023-04-02T20:58:44.117Z,77.36
2023-04-02T21:01:32.575Z,77.57
2023-04-02T21:04:02.272Z,77.68
2023-04-02T21:06:33.983Z,77.68
2023-04-02T21:09:08.335Z,77.55
2023-04-02T21:11:36.135Z,77.42
2023-04-02T21:14:04.230Z,77.65
2023-04-02T21:16:32.233Z,76.78
2023-04-02T21:19:02.082Z,75.73
2023-04-02T21:21:29.426Z,76.04
2023-04-02T21:24:01.839Z,75.62
2023-04-02T21:26:31.316Z,75.36
2023-04-02T21:28:59.243Z,76.56
2023-04-02T21:31:31.132Z,76.45
2023-04-02T21:33:59.120Z,75.85
2023-04-02T21:36:34.319Z,76.11
2023-04-02T21:39:09.761Z,75.99
2023-04-02T21:41:41.958Z,75.47
2023-04-02T21:44:10.387Z,74.48
2023-04-02T21:46:39.475Z,75.41
2023-04-02T21:49:08.135Z,75.96
2023-04-02T21:51:37.382Z,75.19
2023-04-02T21:54:04.970Z,75.38
2023-04-02T21:56:40.493Z,75.14
2023-04-02T21:59:09.337Z,75.76
2023-04-02T22:01:42.140Z,75.06
2023-04-02T22:04:11.410Z,75.66
2023-04-02T22:06:41.825Z,76.11
2023-04-02T22:09:12.079Z,75.70
2023-04-02T22:11:47.885Z,74.80
2023-04-02T22:14:15.449Z,74.63
2023-04-02T22:16:42.598Z,74.79
2023-04-02T22:19:14.888Z,75.01
2023-04-02T22:21:41.875Z,75.50
2023-04-02T22:24:13.169Z,75.41
2023-04-02T22:26:40.770Z,74.33
2023-04-02T22:29:07.737Z,74.15
2023-04-02T22:31:35.308Z,73.81
2023-04-02T22:34:04.443Z,73.49
2023-04-02T22:36:31.703Z,73.75
2023-04-02T22:38:59.465Z,72.94
2023-04-02T22:41:28.488Z,74.20
2023-04-02T22:43:56.704Z,73.80
2023-04-02T22:46:24.199Z,74.08
2023-04-02T22:48:50.894Z,74.00
2023-04-02T22:51:20.216Z,74.26
2023-04-02T22:53:47.272Z,73.62
2023-04-02T22:56:18.511Z,72.73
2023-04-02T22:58:46.029Z,72.48
2023-04-02T23:01:16.331Z,72.16
2023-04-02T23:03:43.116Z,72.75
2023-04-02T23:06:11.845Z,72.52
2023-04-02T23:08:39.339Z,73.07
2023-04-02T23:11:22.031Z,72.77
2023-04-02T23:13:51.348Z,72.68
2023-04-02T23:16:18.782Z,72.19
2023-04-02T23:18:48.130Z,71.55
2023-04-02T23:21:15.976Z,71.96
2023-04-02T23:23:43.264Z,72.29
2023-04-02T23:26:13.153Z,72.63
2023-04-02T23:28:41.025Z,71.93
2023-04-02T23:31:11.198Z,71.82
2023-04-02T23:33:37.820Z,72.23
2023-04-02T23:36:16.740Z,72.67
2023-04-02T23:38:43.425Z,73.21
2023-04-02T23:41:15.158Z,72.93
2023-04-02T23:43:41.900Z,72.82
2023-04-02T23:46:09.093Z,72.73
2023-04-02T23:48:35.794Z,72.32
2023-04-02T23:51:02.393Z,72.30
2023-04-02T23:53:29.016Z,72.64
2023-04-02T23:55:55.693Z,72.46
2023-04-02T23:58:22.311Z,72.27
